Time;durP1;ratioP1;P1;durP2;ratioP2;P2;SDS_P1;SDS_P2;PMS_P1;PMS_P2;Temp;Humidity;BMP_temperature;BMP_pressure;BME280_temperature;BME280_humidity;BME280_pressure;Samples;Min_cycle;Max_cycle;Signal;HPM_P1;HPM_P2
2023/09/03 00:01:07;;;;;;;6.80;4.72;;;;;;;;;;5012327;28;20191;-66
2023/09/03 00:03:32;;;;;;;7.15;4.90;;;;;;;;;;5012361;28;20171;-65
2023/09/03 00:05:57;;;;;;;6.22;4.65;;;;;;;;;;5010512;28;20187;-65
2023/09/03 00:08:23;;;;;;;4.93;4.43;;;;;;;;;;5012943;28;20171;-66
2023/09/03 00:10:49;;;;;;;6.43;4.97;;;;;;;;;;5012737;28;20183;-66
2023/09/03 00:13:14;;;;;;;5.82;3.90;;;;;;;;;;5009602;28;20225;-66
2023/09/03 00:15:39;;;;;;;8.25;4.72;;;;;;;;;;5008388;28;20221;-66
2023/09/03 00:18:06;;;;;;;6.15;4.72;;;;;;;;;;5010804;28;20183;-65
2023/09/03 00:20:31;;;;;;;4.93;3.63;;;;;;;;;;5006759;28;20179;-65
2023/09/03 00:22:57;;;;;;;4.63;3.80;;;;;;;;;;5028034;22;20261;-69
2023/09/03 00:25:23;;;;;;;5.53;3.53;;;;;;;;;;5014285;28;20191;-69
2023/09/03 00:27:48;;;;;;;7.20;4.80;;;;;;;;;;5014643;28;20667;-69
2023/09/03 00:30:13;;;;;;;6.50;4.43;;;;;;;;;;5019293;28;20187;-70
2023/09/03 00:32:38;;;;;;;5.75;3.97;;;;;;;;;;5014185;28;20743;-70
2023/09/03 00:35:04;;;;;;;4.93;3.67;;;;;;;;;;5015672;28;20211;-70
2023/09/03 00:37:29;;;;;;;6.03;4.18;;;;;;;;;;5015667;28;20175;-70
2023/09/03 00:39:54;;;;;;;5.70;4.65;;;;;;;;;;5020953;28;20222;-70
2023/09/03 00:42:19;;;;;;;6.57;4.60;;;;;;;;;;5018991;28;20195;-69
2023/09/03 00:44:46;;;;;;;6.72;4.07;;;;;;;;;;5020134;28;20183;-70
2023/09/03 00:47:11;;;;;;;7.40;4.40;;;;;;;;;;5015263;28;20183;-69
2023/09/03 00:49:40;;;;;;;9.65;5.68;;;;;;;;;;5013143;28;20249;-69
2023/09/03 00:52:05;;;;;;;8.20;5.40;;;;;;;;;;5015199;28;20206;-68
2023/09/03 00:54:30;;;;;;;7.18;5.28;;;;;;;;;;5013264;28;20666;-68
2023/09/03 00:56:56;;;;;;;7.35;5.07;;;;;;;;;;5016392;28;20703;-69
2023/09/03 00:59:22;;;;;;;8.85;5.25;;;;;;;;;;5012806;28;20172;-68
2023/09/03 01:01:51;;;;;;;8.95;5.53;;;;;;;;;;5018349;28;20214;-69
2023/09/03 01:04:18;;;;;;;12.13;5.45;;;;;;;;;;5008625;28;20202;-69
2023/09/03 01:06:43;;;;;;;8.88;5.50;;;;;;;;;;5009898;28;20185;-69
2023/09/03 01:09:10;;;;;;;7.47;5.05;;;;;;;;;;5017915;28;20179;-69
2023/09/03 01:11:35;;;;;;;6.72;5.07;;;;;;;;;;5009664;28;20277;-69
2023/09/03 01:14:06;;;;;;;9.75;5.80;;;;;;;;;;5004142;28;20563;-68
2023/09/03 01:16:33;;;;;;;8.10;6.05;;;;;;;;;;5015260;28;20653;-69
2023/09/03 01:19:00;;;;;;;7.32;5.47;;;;;;;;;;5012084;28;20175;-69
2023/09/03 01:21:25;;;;;;;11.40;6.18;;;;;;;;;;5006588;28;20210;-70
2023/09/03 01:23:58;;;;;;;8.52;5.55;;;;;;;;;;5007622;28;20218;-69
2023/09/03 01:26:36;;;;;;;7.25;5.65;;;;;;;;;;5012326;28;20233;-69
2023/09/03 01:29:01;;;;;;;9.75;5.68;;;;;;;;;;5010217;28;20189;-69
2023/09/03 01:31:27;;;;;;;9.60;6.18;;;;;;;;;;5010316;28;20260;-70
2023/09/03 01:34:01;;;;;;;8.82;5.90;;;;;;;;;;5009563;28;20575;-69
2023/09/03 01:36:27;;;;;;;11.13;6.82;;;;;;;;;;5001259;28;20174;-69
2023/09/03 01:38:52;;;;;;;9.40;6.50;;;;;;;;;;5011339;28;20241;-69
2023/09/03 01:41:17;;;;;;;7.90;5.70;;;;;;;;;;5004802;28;20766;-69
2023/09/03 01:43:43;;;;;;;9.57;6.75;;;;;;;;;;5010567;28;20171;-69
2023/09/03 01:46:10;;;;;;;7.38;5.82;;;;;;;;;;5010048;28;20171;-69
2023/09/03 01:48:54;;;;;;;9.95;6.25;;;;;;;;;;5001553;28;20190;-69
2023/09/03 01:51:22;;;;;;;7.80;5.65;;;;;;;;;;5011789;28;20224;-69
2023/09/03 01:53:47;;;;;;;9.15;5.78;;;;;;;;;;5010656;28;20266;-70
2023/09/03 01:56:13;;;;;;;11.27;6.68;;;;;;;;;;5023711;28;20322;-70
2023/09/03 01:58:40;;;;;;;8.43;6.00;;;;;;;;;;5009863;28;20174;-70
2023/09/03 02:01:05;;;;;;;10.63;6.40;;;;;;;;;;5011998;28;20273;-70
2023/09/03 02:03:31;;;;;;;10.85;7.40;;;;;;;;;;5009164;28;20218;-70
2023/09/03 02:05:56;;;;;;;8.43;5.97;;;;;;;;;;5008291;28;20265;-70
2023/09/03 02:08:21;;;;;;;9.05;6.78;;;;;;;;;;5012021;28;20653;-68
2023/09/03 02:10:47;;;;;;;8.57;6.00;;;;;;;;;;5002979;28;20186;-69
2023/09/03 02:13:12;;;;;;;12.52;6.47;;;;;;;;;;5010814;28;20206;-69
2023/09/03 02:15:37;;;;;;;10.13;6.53;;;;;;;;;;5011767;28;20556;-70
2023/09/03 02:18:03;;;;;;;11.05;7.00;;;;;;;;;;5014553;28;20663;-69
2023/09/03 02:20:28;;;;;;;8.02;5.70;;;;;;;;;;5012062;28;20168;-69
2023/09/03 02:22:53;;;;;;;9.13;6.35;;;;;;;;;;5012337;28;20215;-69
2023/09/03 02:25:18;;;;;;;8.13;5.90;;;;;;;;;;5010435;28;20190;-69
2023/09/03 02:27:43;;;;;;;10.02;6.05;;;;;;;;;;5012348;28;20233;-69
2023/09/03 02:30:09;;;;;;;7.85;5.75;;;;;;;;;;5011828;28;20187;-69
2023/09/03 02:32:34;;;;;;;11.35;5.88;;;;;;;;;;5006135;28;20195;-70
2023/09/03 02:34:59;;;;;;;11.05;5.97;;;;;;;;;;5006169;28;20206;-69
2023/09/03 02:37:25;;;;;;;8.65;5.90;;;;;;;;;;5010989;28;20604;-69
2023/09/03 02:39:50;;;;;;;12.77;7.53;;;;;;;;;;5011679;28;20609;-69
2023/09/03 02:42:15;;;;;;;12.10;5.85;;;;;;;;;;5006576;28;20269;-69
2023/09/03 02:44:40;;;;;;;11.02;6.55;;;;;;;;;;5014087;28;20187;-69
2023/09/03 02:47:05;;;;;;;10.93;7.03;;;;;;;;;;5012875;28;20190;-69
2023/09/03 02:49:31;;;;;;;13.10;6.93;;;;;;;;;;5012421;28;20187;-69
2023/09/03 02:51:56;;;;;;;10.63;7.65;;;;;;;;;;5014234;28;20237;-69
2023/09/03 02:54:21;;;;;;;12.40;7.70;;;;;;;;;;5013302;28;20207;-69
2023/09/03 02:56:47;;;;;;;9.82;7.07;;;;;;;;;;5014332;28;20535;-70
2023/09/03 02:59:12;;;;;;;10.05;7.28;;;;;;;;;;5013814;28;20183;-70
2023/09/03 03:01:37;;;;;;;13.23;7.72;;;;;;;;;;5015737;28;20225;-69
2023/09/03 03:04:03;;;;;;;12.13;7.43;;;;;;;;;;5014668;28;20187;-69
2023/09/03 03:06:28;;;;;;;12.73;6.88;;;;;;;;;;5014341;28;20175;-70
2023/09/03 03:08:53;;;;;;;10.15;7.28;;;;;;;;;;5016126;28;20205;-69
2023/09/03 03:11:19;;;;;;;9.90;7.05;;;;;;;;;;5013468;28;20211;-69
2023/09/03 03:13:45;;;;;;;10.90;6.32;;;;;;;;;;5015246;28;20250;-69
2023/09/03 03:16:11;;;;;;;10.90;6.88;;;;;;;;;;5016233;28;20175;-69
2023/09/03 03:18:37;;;;;;;10.45;7.38;;;;;;;;;;5014886;28;20179;-70
2023/09/03 03:21:06;;;;;;;11.30;7.50;;;;;;;;;;5002247;28;20206;-69
2023/09/03 03:23:32;;;;;;;10.75;6.55;;;;;;;;;;5015300;28;20289;-69
2023/09/03 03:25:57;;;;;;;9.07;6.63;;;;;;;;;;5011968;28;20289;-69
2023/09/03 03:28:22;;;;;;;10.15;6.78;;;;;;;;;;5013688;28;20191;-69
2023/09/03 03:30:47;;;;;;;13.63;7.53;;;;;;;;;;5009791;28;20195;-70
2023/09/03 03:33:12;;;;;;;10.65;6.80;;;;;;;;;;5014383;28;20191;-70
2023/09/03 03:35:38;;;;;;;10.90;7.35;;;;;;;;;;5013081;28;20200;-69
2023/09/03 03:38:03;;;;;;;8.35;6.15;;;;;;;;;;5014654;28;20167;-69
2023/09/03 03:40:28;;;;;;;8.57;6.63;;;;;;;;;;5013582;28;20182;-69
2023/09/03 03:42:53;;;;;;;10.90;7.32;;;;;;;;;;5006504;28;20195;-69
2023/09/03 03:45:19;;;;;;;11.88;6.75;;;;;;;;;;5010689;28;20596;-69
2023/09/03 03:47:44;;;;;;;11.38;7.57;;;;;;;;;;5013724;28;20197;-69
2023/09/03 03:50:09;;;;;;;10.65;7.55;;;;;;;;;;5013423;28;20560;-69
2023/09/03 03:52:34;;;;;;;11.13;6.72;;;;;;;;;;5010426;28;20202;-69
2023/09/03 03:54:59;;;;;;;11.23;7.15;;;;;;;;;;5007041;28;20753;-69
2023/09/03 03:57:25;;;;;;;10.18;6.97;;;;;;;;;;5009656;28;20175;-69
2023/09/03 03:59:50;;;;;;;10.35;6.68;;;;;;;;;;5013824;28;20172;-70
2023/09/03 04:02:15;;;;;;;11.00;7.47;;;;;;;;;;5013658;28;20693;-69
2023/09/03 04:04:41;;;;;;;7.93;5.95;;;;;;;;;;5003586;28;20175;-69
2023/09/03 04:07:06;;;;;;;11.60;7.35;;;;;;;;;;5011436;28;20191;-69
2023/09/03 04:09:31;;;;;;;9.13;6.72;;;;;;;;;;5007043;28;20190;-69
2023/09/03 04:11:56;;;;;;;10.90;6.55;;;;;;;;;;5012039;28;20209;-70
2023/09/03 04:14:21;;;;;;;10.27;6.97;;;;;;;;;;5006088;28;20258;-69
2023/09/03 04:16:47;;;;;;;8.85;6.63;;;;;;;;;;5012936;28;20576;-69
2023/09/03 04:19:12;;;;;;;9.45;6.80;;;;;;;;;;5013360;28;20694;-69
2023/09/03 04:21:37;;;;;;;10.38;7.18;;;;;;;;;;5002888;28;20199;-69
2023/09/03 04:24:03;;;;;;;12.13;7.65;;;;;;;;;;5008831;28;20179;-69
2023/09/03 04:26:28;;;;;;;14.13;7.72;;;;;;;;;;5013295;28;20233;-69
2023/09/03 04:28:54;;;;;;;10.60;6.85;;;;;;;;;;5013035;28;20183;-69
2023/09/03 04:31:19;;;;;;;10.65;6.72;;;;;;;;;;5011189;28;20228;-69
2023/09/03 04:33:45;;;;;;;10.48;7.43;;;;;;;;;;5014289;28;20171;-70
2023/09/03 04:36:10;;;;;;;11.18;7.97;;;;;;;;;;5009951;28;20573;-69
2023/09/03 04:38:35;;;;;;;13.93;7.97;;;;;;;;;;5014183;28;20178;-69
2023/09/03 04:41:04;;;;;;;10.55;7.78;;;;;;;;;;5012056;28;20542;-69
2023/09/03 04:43:29;;;;;;;10.00;7.20;;;;;;;;;;5007927;28;20689;-69
2023/09/03 04:45:55;;;;;;;10.68;7.05;;;;;;;;;;5012929;28;20263;-69
2023/09/03 04:48:20;;;;;;;9.95;6.68;;;;;;;;;;5013735;28;20186;-69
2023/09/03 04:50:46;;;;;;;10.85;7.38;;;;;;;;;;5013802;28;20197;-69
2023/09/03 04:53:12;;;;;;;11.77;7.35;;;;;;;;;;5014078;28;20210;-69
2023/09/03 04:55:38;;;;;;;14.32;8.25;;;;;;;;;;5012809;28;20279;-69
2023/09/03 04:58:03;;;;;;;13.38;7.07;;;;;;;;;;5013069;28;20210;-69
2023/09/03 05:00:29;;;;;;;11.27;6.72;;;;;;;;;;5012771;28;20179;-70
2023/09/03 05:02:55;;;;;;;8.25;5.90;;;;;;;;;;5014220;28;20202;-69
2023/09/03 05:05:20;;;;;;;9.60;6.78;;;;;;;;;;5010686;28;20657;-70
2023/09/03 05:07:47;;;;;;;9.38;6.75;;;;;;;;;;5013085;28;20270;-69
2023/09/03 05:10:12;;;;;;;9.25;6.47;;;;;;;;;;5045489;28;20332;-69
2023/09/03 05:12:40;;;;;;;7.88;5.75;;;;;;;;;;5005651;28;20220;-69
2023/09/03 05:15:06;;;;;;;9.23;7.22;;;;;;;;;;5011466;28;20290;-69
2023/09/03 05:17:32;;;;;;;11.85;7.60;;;;;;;;;;5019060;28;20254;-69
2023/09/03 05:19:57;;;;;;;13.05;8.02;;;;;;;;;;5012225;28;20194;-68
2023/09/03 05:22:22;;;;;;;10.75;7.50;;;;;;;;;;5011848;28;20591;-69
2023/09/03 05:24:47;;;;;;;10.30;7.22;;;;;;;;;;5012169;28;20179;-69
2023/09/03 05:27:13;;;;;;;10.05;7.03;;;;;;;;;;5014804;28;20217;-69
2023/09/03 05:29:38;;;;;;;9.88;6.78;;;;;;;;;;5012715;28;20252;-69
2023/09/03 05:32:03;;;;;;;9.43;6.40;;;;;;;;;;5010914;28;20210;-69
2023/09/03 05:34:29;;;;;;;9.68;6.88;;;;;;;;;;5012159;28;20195;-69
2023/09/03 05:36:54;;;;;;;10.07;6.47;;;;;;;;;;5007653;28;20629;-70
2023/09/03 05:39:19;;;;;;;10.00;7.50;;;;;;;;;;5011610;28;20215;-70
2023/09/03 05:41:44;;;;;;;11.85;7.45;;;;;;;;;;5009586;28;20241;-70
2023/09/03 05:44:11;;;;;;;11.60;6.93;;;;;;;;;;5003221;28;20183;-70
2023/09/03 05:46:36;;;;;;;10.98;6.60;;;;;;;;;;5006462;28;20182;-70
2023/09/03 05:49:01;;;;;;;13.13;7.97;;;;;;;;;;5010104;28;20278;-70
2023/09/03 05:51:27;;;;;;;12.57;8.77;;;;;;;;;;5011698;28;20186;-70
2023/09/03 05:53:53;;;;;;;14.07;7.28;;;;;;;;;;5011284;28;20625;-70
2023/09/03 05:56:19;;;;;;;12.13;7.72;;;;;;;;;;5010888;28;20167;-70
2023/09/03 05:58:44;;;;;;;10.35;6.90;;;;;;;;;;5011301;28;20224;-70
2023/09/03 06:01:10;;;;;;;11.05;7.88;;;;;;;;;;5031002;28;20210;-70
2023/09/03 06:03:35;;;;;;;11.27;8.25;;;;;;;;;;5001872;28;20203;-70
2023/09/03 06:06:04;;;;;;;11.43;8.13;;;;;;;;;;5009569;28;20719;-70
2023/09/03 06:08:30;;;;;;;10.95;7.93;;;;;;;;;;5009202;28;20179;-70
2023/09/03 06:10:56;;;;;;;13.98;7.60;;;;;;;;;;5007746;28;20185;-70
2023/09/03 06:13:28;;;;;;;11.32;8.05;;;;;;;;;;5008908;28;20203;-69
2023/09/03 06:15:53;;;;;;;11.73;7.47;;;;;;;;;;5016372;28;20217;-68
2023/09/03 06:18:18;;;;;;;10.07;7.65;;;;;;;;;;5007200;28;20167;-69
2023/09/03 06:20:44;;;;;;;12.05;8.27;;;;;;;;;;4999200;28;20242;-69
2023/09/03 06:23:09;;;;;;;9.73;7.63;;;;;;;;;;5009367;28;20210;-68
2023/09/03 06:25:35;;;;;;;12.80;8.65;;;;;;;;;;5009854;28;20206;-68
2023/09/03 06:28:00;;;;;;;11.75;8.32;;;;;;;;;;5009781;28;20186;-69
2023/09/03 06:30:25;;;;;;;12.95;8.40;;;;;;;;;;5010650;28;20190;-69
2023/09/03 06:32:50;;;;;;;16.35;7.82;;;;;;;;;;5010797;28;20269;-69
2023/09/03 06:35:16;;;;;;;10.00;7.47;;;;;;;;;;5011218;28;20209;-68
2023/09/03 06:37:41;;;;;;;12.00;7.63;;;;;;;;;;5004760;28;20199;-68
2023/09/03 06:40:07;;;;;;;10.20;7.60;;;;;;;;;;5010199;28;20175;-69
2023/09/03 06:42:32;;;;;;;9.77;7.25;;;;;;;;;;5011761;28;20603;-69
2023/09/03 06:44:57;;;;;;;9.70;7.32;;;;;;;;;;5008883;28;20183;-69
2023/09/03 06:47:22;;;;;;;10.07;7.40;;;;;;;;;;5011696;28;20186;-70
2023/09/03 06:49:51;;;;;;;10.57;6.93;;;;;;;;;;5008920;28;20183;-69
2023/09/03 06:52:16;;;;;;;9.38;6.93;;;;;;;;;;5012049;28;20242;-69
2023/09/03 06:54:42;;;;;;;10.55;7.90;;;;;;;;;;5003684;28;20258;-70
2023/09/03 06:57:07;;;;;;;11.35;7.75;;;;;;;;;;5011092;28;20183;-69
2023/09/03 06:59:32;;;;;;;10.15;7.70;;;;;;;;;;5006374;28;20281;-69
2023/09/03 07:01:58;;;;;;;12.18;8.80;;;;;;;;;;5011187;28;20191;-71
2023/09/03 07:04:23;;;;;;;11.52;8.25;;;;;;;;;;5002733;28;20188;-70
2023/09/03 07:06:48;;;;;;;11.02;7.15;;;;;;;;;;5004083;28;20730;-69
2023/09/03 07:09:13;;;;;;;11.60;7.07;;;;;;;;;;5010060;28;20218;-69
2023/09/03 07:11:39;;;;;;;11.50;7.95;;;;;;;;;;5005594;28;20469;-69
2023/09/03 07:14:04;;;;;;;12.77;6.72;;;;;;;;;;5007868;28;20179;-69
2023/09/03 07:16:29;;;;;;;8.50;6.97;;;;;;;;;;5012137;28;20175;-69
2023/09/03 07:18:54;;;;;;;9.88;6.82;;;;;;;;;;5007660;28;20183;-69
2023/09/03 07:21:20;;;;;;;10.43;6.95;;;;;;;;;;5011112;28;20175;-68
2023/09/03 07:23:45;;;;;;;9.52;8.05;;;;;;;;;;5009400;28;20194;-69
2023/09/03 07:26:10;;;;;;;11.30;8.75;;;;;;;;;;5009322;28;20179;-69
2023/09/03 07:28:36;;;;;;;8.80;7.35;;;;;;;;;;5009937;28;20263;-68
2023/09/03 07:31:01;;;;;;;11.30;7.82;;;;;;;;;;5011111;28;20190;-69
2023/09/03 07:33:26;;;;;;;10.65;7.47;;;;;;;;;;5004912;28;20234;-69
2023/09/03 07:35:52;;;;;;;10.80;7.25;;;;;;;;;;5008639;28;20310;-69
2023/09/03 07:38:17;;;;;;;11.18;8.20;;;;;;;;;;5001812;28;20194;-70
2023/09/03 07:40:43;;;;;;;11.32;8.45;;;;;;;;;;5010451;28;20182;-67
2023/09/03 07:43:08;;;;;;;9.77;7.20;;;;;;;;;;5013054;28;20198;-67
2023/09/03 07:45:33;;;;;;;10.68;7.05;;;;;;;;;;5011842;28;20194;-68
2023/09/03 07:47:58;;;;;;;8.40;6.43;;;;;;;;;;5008835;28;20179;-68
2023/09/03 07:50:23;;;;;;;7.68;6.72;;;;;;;;;;5008373;28;20182;-68
2023/09/03 07:52:49;;;;;;;10.35;7.47;;;;;;;;;;5013963;28;20225;-68
2023/09/03 07:55:15;;;;;;;9.25;6.47;;;;;;;;;;5014960;28;20210;-68
2023/09/03 07:57:40;;;;;;;10.05;6.35;;;;;;;;;;5014978;28;20174;-70
2023/09/03 08:00:05;;;;;;;12.60;7.45;;;;;;;;;;5013764;28;20175;-70
2023/09/03 08:02:31;;;;;;;10.35;7.95;;;;;;;;;;5015206;28;20194;-70
2023/09/03 08:04:56;;;;;;;10.88;7.35;;;;;;;;;;5013818;28;20182;-70
2023/09/03 08:07:21;;;;;;;8.45;6.88;;;;;;;;;;5013286;28;20186;-70
2023/09/03 08:09:46;;;;;;;7.90;6.97;;;;;;;;;;5011458;28;20241;-68
2023/09/03 08:12:12;;;;;;;9.25;7.38;;;;;;;;;;5014032;28;20255;-68
2023/09/03 08:14:38;;;;;;;10.32;7.25;;;;;;;;;;5014288;28;20583;-69
2023/09/03 08:17:04;;;;;;;10.88;6.28;;;;;;;;;;5010335;28;20186;-69
2023/09/03 08:19:29;;;;;;;10.90;6.32;;;;;;;;;;5042053;28;20187;-71
2023/09/03 08:21:54;;;;;;;12.65;8.02;;;;;;;;;;5007859;28;20217;-68
2023/09/03 08:24:19;;;;;;;10.10;7.22;;;;;;;;;;5012157;28;20194;-68
2023/09/03 08:26:47;;;;;;;7.10;6.00;;;;;;;;;;5014329;28;20405;-69
2023/09/03 08:29:13;;;;;;;7.97;6.53;;;;;;;;;;5006066;28;20708;-69
2023/09/03 08:31:38;;;;;;;7.78;5.53;;;;;;;;;;5010730;28;20201;-69
2023/09/03 08:34:03;;;;;;;8.82;5.95;;;;;;;;;;5013245;28;20500;-69
2023/09/03 08:36:28;;;;;;;7.70;5.80;;;;;;;;;;5008393;28;20190;-68
2023/09/03 08:38:53;;;;;;;8.50;6.43;;;;;;;;;;5009347;28;20558;-69
2023/09/03 08:41:21;;;;;;;10.38;6.80;;;;;;;;;;5014379;28;20428;-68
2023/09/03 08:43:47;;;;;;;7.75;6.35;;;;;;;;;;5036349;28;20213;-69
2023/09/03 08:46:14;;;;;;;9.95;5.85;;;;;;;;;;5014451;28;20183;-69
2023/09/03 08:48:39;;;;;;;8.50;7.00;;;;;;;;;;5013124;28;20187;-69
2023/09/03 08:51:05;;;;;;;8.13;6.32;;;;;;;;;;5012364;28;20194;-69
2023/09/03 08:53:31;;;;;;;10.85;6.28;;;;;;;;;;5012658;28;20253;-69
2023/09/03 08:55:57;;;;;;;7.25;5.68;;;;;;;;;;5013764;28;20211;-69
2023/09/03 08:58:22;;;;;;;15.15;6.05;;;;;;;;;;5008660;28;20195;-69
2023/09/03 09:00:47;;;;;;;6.68;5.10;;;;;;;;;;5037469;28;20197;-69
2023/09/03 09:03:13;;;;;;;8.30;5.63;;;;;;;;;;5008206;28;20206;-69
2023/09/03 09:05:41;;;;;;;8.18;6.50;;;;;;;;;;5012661;28;20619;-69
2023/09/03 09:08:06;;;;;;;9.38;6.45;;;;;;;;;;5005347;28;20183;-69
2023/09/03 09:10:32;;;;;;;6.78;5.68;;;;;;;;;;5008550;28;20175;-69
2023/09/03 09:12:57;;;;;;;6.25;5.13;;;;;;;;;;5008494;28;20881;-69
2023/09/03 09:15:23;;;;;;;7.15;5.82;;;;;;;;;;5007285;28;20723;-69
2023/09/03 09:17:48;;;;;;;8.13;6.03;;;;;;;;;;5009000;28;20536;-69
2023/09/03 09:20:14;;;;;;;8.38;5.63;;;;;;;;;;5010707;28;20175;-69
2023/09/03 09:22:39;;;;;;;7.22;6.50;;;;;;;;;;5012583;28;20689;-69
2023/09/03 09:25:05;;;;;;;7.60;5.57;;;;;;;;;;5012756;28;20193;-69
2023/09/03 09:27:35;;;;;;;6.18;5.10;;;;;;;;;;5010303;28;20428;-70
2023/09/03 09:30:08;;;;;;;6.28;5.40;;;;;;;;;;5013814;28;20203;-69
2023/09/03 09:32:33;;;;;;;7.32;5.65;;;;;;;;;;5011012;28;20198;-69
2023/09/03 09:34:58;;;;;;;5.53;4.15;;;;;;;;;;5013525;28;20202;-69
2023/09/03 09:37:24;;;;;;;5.67;4.87;;;;;;;;;;5008802;28;20178;-68
2023/09/03 09:39:49;;;;;;;8.05;4.60;;;;;;;;;;5012304;28;20917;-68
2023/09/03 09:42:18;;;;;;;5.78;4.20;;;;;;;;;;5007177;28;20224;-68
2023/09/03 09:44:53;;;;;;;8.30;3.97;;;;;;;;;;5003154;28;20606;-69
2023/09/03 09:47:18;;;;;;;4.38;3.40;;;;;;;;;;5012707;28;20206;-71
2023/09/03 09:49:45;;;;;;;3.15;2.53;;;;;;;;;;5005136;28;20280;-68
2023/09/03 09:52:12;;;;;;;5.50;2.20;;;;;;;;;;5002262;28;20211;-69
2023/09/03 09:54:41;;;;;;;5.53;1.60;;;;;;;;;;5005840;28;20199;-69
2023/09/03 09:57:14;;;;;;;1.92;1.55;;;;;;;;;;5009794;28;20183;-69
2023/09/03 09:59:40;;;;;;;1.67;1.40;;;;;;;;;;5003942;28;20724;-69
2023/09/03 10:02:13;;;;;;;5.43;3.10;;;;;;;;;;5011149;28;20253;-69
2023/09/03 10:04:48;;;;;;;5.22;3.20;;;;;;;;;;5011190;28;20175;-69
2023/09/03 10:07:13;;;;;;;4.70;3.17;;;;;;;;;;5012300;28;20261;-70
2023/09/03 10:09:39;;;;;;;3.40;3.10;;;;;;;;;;5009958;28;20222;-69
2023/09/03 10:12:05;;;;;;;3.45;2.40;;;;;;;;;;5006814;28;20716;-69
2023/09/03 10:14:30;;;;;;;3.88;3.47;;;;;;;;;;5008426;28;20207;-68
2023/09/03 10:16:57;;;;;;;3.90;2.53;;;;;;;;;;4998361;28;20286;-68
2023/09/03 10:19:42;;;;;;;6.45;3.88;;;;;;;;;;5007813;28;20252;-69
2023/09/03 10:22:09;;;;;;;4.85;2.90;;;;;;;;;;5037193;28;20210;-69
2023/09/03 10:24:36;;;;;;;3.03;2.13;;;;;;;;;;5008436;28;20201;-69
2023/09/03 10:27:03;;;;;;;6.70;3.22;;;;;;;;;;5004314;28;20210;-69
2023/09/03 10:29:30;;;;;;;3.80;2.97;;;;;;;;;;5002753;28;20190;-69
2023/09/03 10:31:56;;;;;;;4.18;3.28;;;;;;;;;;5006122;28;20203;-69
2023/09/03 10:34:21;;;;;;;2.83;1.80;;;;;;;;;;5006077;28;20215;-69
2023/09/03 10:37:05;;;;;;;4.10;3.03;;;;;;;;;;5009854;28;20197;-69
2023/09/03 10:39:31;;;;;;;4.18;2.88;;;;;;;;;;5002171;28;20649;-69
2023/09/03 10:42:17;;;;;;;3.70;2.53;;;;;;;;;;5008897;28;20217;-69
2023/09/03 10:44:59;;;;;;;4.22;2.92;;;;;;;;;;5008803;28;20688;-69
2023/09/03 10:47:24;;;;;;;3.17;2.88;;;;;;;;;;5015310;28;20262;-68
2023/09/03 10:49:50;;;;;;;2.72;2.53;;;;;;;;;;5009936;28;21476;-69
2023/09/03 10:52:28;;;;;;;3.72;2.85;;;;;;;;;;5010183;28;20332;-69
2023/09/03 10:55:12;;;;;;;3.33;2.60;;;;;;;;;;5010820;28;20206;-68
2023/09/03 10:57:37;;;;;;;4.57;2.17;;;;;;;;;;5009965;28;20590;-69
2023/09/03 11:00:06;;;;;;;3.28;1.95;;;;;;;;;;5006505;28;20271;-68
2023/09/03 11:02:32;;;;;;;4.72;2.65;;;;;;;;;;5011951;28;20203;-69
2023/09/03 11:05:14;;;;;;;5.00;2.40;;;;;;;;;;5017906;28;20190;-68
2023/09/03 11:07:43;;;;;;;2.13;1.75;;;;;;;;;;5023626;28;20167;-69
2023/09/03 11:10:21;;;;;;;2.50;1.73;;;;;;;;;;5023094;28;20178;-69
2023/09/03 11:12:46;;;;;;;4.30;1.75;;;;;;;;;;5023777;28;20337;-69
2023/09/03 11:15:12;;;;;;;2.22;1.38;;;;;;;;;;5026653;28;20203;-69
2023/09/03 11:17:37;;;;;;;2.65;1.70;;;;;;;;;;5025242;28;20203;-69
2023/09/03 11:20:03;;;;;;;2.08;1.70;;;;;;;;;;5020242;28;20599;-69
2023/09/03 11:22:36;;;;;;;3.88;2.38;;;;;;;;;;5021887;28;20218;-69
2023/09/03 11:25:02;;;;;;;3.10;2.00;;;;;;;;;;5019138;28;20171;-69
2023/09/03 11:27:27;;;;;;;1.83;1.52;;;;;;;;;;5019444;28;20191;-69
2023/09/03 11:30:02;;;;;;;3.73;1.73;;;;;;;;;;5016363;28;20194;-69
2023/09/03 11:32:39;;;;;;;1.88;1.38;;;;;;;;;;5017184;28;20462;-70
2023/09/03 11:35:05;;;;;;;1.85;1.27;;;;;;;;;;5013741;28;20276;-70
2023/09/03 11:37:30;;;;;;;6.78;1.48;;;;;;;;;;5014990;28;20167;-69
2023/09/03 11:39:55;;;;;;;2.03;1.00;;;;;;;;;;5008166;28;20261;-70
2023/09/03 11:42:22;;;;;;;2.15;1.20;;;;;;;;;;5013892;28;20456;-70
2023/09/03 11:44:50;;;;;;;2.03;1.30;;;;;;;;;;5011367;28;20565;-70
2023/09/03 11:47:15;;;;;;;1.42;1.30;;;;;;;;;;5012629;28;20661;-70
2023/09/03 11:49:45;;;;;;;0.90;0.80;;;;;;;;;;5009271;28;20188;-69
2023/09/03 11:52:10;;;;;;;1.23;0.90;;;;;;;;;;5003482;28;20436;-69
2023/09/03 11:54:36;;;;;;;1.85;1.20;;;;;;;;;;5012270;28;20317;-69
2023/09/03 11:57:03;;;;;;;2.92;1.48;;;;;;;;;;5011275;28;20233;-69
2023/09/03 11:59:28;;;;;;;2.75;1.10;;;;;;;;;;5005854;28;20191;-69
2023/09/03 12:01:53;;;;;;;1.00;0.90;;;;;;;;;;5009424;28;20631;-68
2023/09/03 12:04:19;;;;;;;1.35;1.02;;;;;;;;;;5006805;28;20183;-69
2023/09/03 12:06:44;;;;;;;1.35;0.70;;;;;;;;;;5010061;28;20194;-69
2023/09/03 12:09:10;;;;;;;1.75;0.93;;;;;;;;;;5007135;28;20187;-69
2023/09/03 12:11:35;;;;;;;1.70;1.20;;;;;;;;;;5008672;28;20697;-69
2023/09/03 12:14:00;;;;;;;1.30;1.17;;;;;;;;;;5009284;28;20240;-70
2023/09/03 12:16:27;;;;;;;2.30;1.50;;;;;;;;;;5007219;28;20186;-69
2023/09/03 12:18:59;;;;;;;1.25;1.08;;;;;;;;;;5005807;28;20591;-69
2023/09/03 12:21:35;;;;;;;1.80;1.00;;;;;;;;;;5008007;28;20182;-69
2023/09/03 12:24:06;;;;;;;1.85;0.98;;;;;;;;;;5028678;23;20255;-67
2023/09/03 12:26:35;;;;;;;1.63;1.00;;;;;;;;;;5023546;28;20179;-67
2023/09/03 12:29:03;;;;;;;1.45;1.00;;;;;;;;;;5030155;28;20212;-66
2023/09/03 12:31:38;;;;;;;1.80;1.08;;;;;;;;;;5031268;28;20648;-66
2023/09/03 12:34:04;;;;;;;1.75;0.90;;;;;;;;;;5019400;28;20629;-66
2023/09/03 12:36:31;;;;;;;1.53;0.70;;;;;;;;;;5021826;28;20262;-66
2023/09/03 12:39:00;;;;;;;1.27;0.65;;;;;;;;;;5019927;28;20451;-66
2023/09/03 12:41:26;;;;;;;1.90;0.60;;;;;;;;;;5017597;28;20261;-66
2023/09/03 12:43:52;;;;;;;1.38;0.73;;;;;;;;;;5012323;28;20210;-66
2023/09/03 12:46:18;;;;;;;1.60;0.77;;;;;;;;;;5016331;28;20178;-66
2023/09/03 12:48:44;;;;;;;1.08;0.77;;;;;;;;;;5011141;28;20183;-66
2023/09/03 12:51:10;;;;;;;2.58;0.80;;;;;;;;;;5020972;28;20191;-66
2023/09/03 12:53:36;;;;;;;3.83;0.75;;;;;;;;;;5021687;28;20186;-66
2023/09/03 12:56:02;;;;;;;1.48;0.93;;;;;;;;;;5012666;28;20214;-66
2023/09/03 12:58:28;;;;;;;0.75;0.52;;;;;;;;;;5016800;28;20252;-66
2023/09/03 13:00:53;;;;;;;0.95;0.70;;;;;;;;;;5015625;28;20664;-67
2023/09/03 13:03:18;;;;;;;0.60;0.60;;;;;;;;;;5020054;28;20316;-66
2023/09/03 13:05:43;;;;;;;0.75;0.70;;;;;;;;;;5017175;28;20206;-66
2023/09/03 13:08:09;;;;;;;1.03;0.77;;;;;;;;;;5015288;28;20182;-65
2023/09/03 13:10:34;;;;;;;1.00;0.50;;;;;;;;;;5023119;28;20428;-65
2023/09/03 13:12:59;;;;;;;0.65;0.65;;;;;;;;;;5014063;28;20421;-66
2023/09/03 13:15:24;;;;;;;1.08;0.90;;;;;;;;;;5017248;28;20179;-67
2023/09/03 13:17:50;;;;;;;0.80;0.60;;;;;;;;;;5006214;28;20735;-66
2023/09/03 13:20:16;;;;;;;1.17;0.63;;;;;;;;;;5021573;28;20440;-66
2023/09/03 13:22:41;;;;;;;1.30;0.85;;;;;;;;;;5015203;28;20260;-65
2023/09/03 13:25:07;;;;;;;2.60;0.70;;;;;;;;;;5021336;28;20226;-65
2023/09/03 13:27:32;;;;;;;1.40;0.63;;;;;;;;;;5014135;28;20177;-66
2023/09/03 13:29:58;;;;;;;1.30;0.60;;;;;;;;;;5024209;28;20224;-65
2023/09/03 13:32:23;;;;;;;0.88;0.50;;;;;;;;;;5018720;28;20455;-65
2023/09/03 13:34:48;;;;;;;0.70;0.60;;;;;;;;;;5014458;28;20201;-66
2023/09/03 13:37:13;;;;;;;1.67;0.57;;;;;;;;;;5014093;28;20660;-67
2023/09/03 13:39:38;;;;;;;0.75;0.45;;;;;;;;;;5009427;28;20864;-66
2023/09/03 13:42:04;;;;;;;1.43;0.70;;;;;;;;;;5011571;28;20175;-66
2023/09/03 13:44:29;;;;;;;0.50;0.40;;;;;;;;;;5023067;28;20194;-66
2023/09/03 13:46:56;;;;;;;0.70;0.63;;;;;;;;;;5019697;28;20521;-66
2023/09/03 13:49:21;;;;;;;1.33;0.70;;;;;;;;;;5018528;28;20419;-67
2023/09/03 13:51:47;;;;;;;1.20;0.80;;;;;;;;;;5014567;28;20186;-66
2023/09/03 13:54:13;;;;;;;0.60;0.60;;;;;;;;;;5016054;28;20442;-65
2023/09/03 13:56:38;;;;;;;1.73;0.73;;;;;;;;;;5013054;28;20191;-66
2023/09/03 13:59:03;;;;;;;1.38;0.98;;;;;;;;;;5010433;28;20210;-65
2023/09/03 14:01:29;;;;;;;1.40;0.87;;;;;;;;;;5018511;28;20656;-65
2023/09/03 14:03:55;;;;;;;1.67;0.82;;;;;;;;;;5014599;28;20537;-66
2023/09/03 14:06:20;;;;;;;0.88;0.70;;;;;;;;;;5011361;28;20587;-66
2023/09/03 14:08:46;;;;;;;0.60;0.55;;;;;;;;;;5015055;28;20549;-66
2023/09/03 14:11:11;;;;;;;3.10;1.10;;;;;;;;;;5015618;28;20179;-65
2023/09/03 14:13:36;;;;;;;1.00;0.70;;;;;;;;;;5015185;28;20448;-66
2023/09/03 14:16:01;;;;;;;0.70;0.60;;;;;;;;;;5022994;28;20420;-66
2023/09/03 14:18:27;;;;;;;1.10;0.73;;;;;;;;;;5012769;28;20178;-65
2023/09/03 14:20:53;;;;;;;1.63;1.00;;;;;;;;;;5018559;28;20178;-67
2023/09/03 14:23:18;;;;;;;0.85;0.70;;;;;;;;;;5011801;28;20220;-66
2023/09/03 14:25:43;;;;;;;0.52;0.52;;;;;;;;;;5026616;28;20301;-66
2023/09/03 14:28:09;;;;;;;2.67;0.75;;;;;;;;;;5014518;28;20585;-66
2023/09/03 14:30:36;;;;;;;1.20;0.82;;;;;;;;;;5012153;28;20187;-66
2023/09/03 14:33:02;;;;;;;2.83;0.98;;;;;;;;;;5014667;28;20682;-66